createdAt,value
2018-12-17T14:22:36.602Z,904.00
2018-12-17T14:23:36.568Z,900.00
2018-12-17T14:24:36.606Z,944.00
2018-12-17T14:25:36.566Z,1008.00
2018-12-17T14:26:36.545Z,1008.00
2018-12-17T14:27:36.536Z,972.00
2018-12-17T14:28:36.532Z,916.00
2018-12-17T14:29:36.610Z,848.00
2018-12-17T14:30:36.494Z,760.00
2018-12-17T14:31:36.480Z,668.00
2018-12-17T14:32:36.475Z,604.00
2018-12-17T14:33:36.458Z,572.00
2018-12-17T14:34:36.464Z,572.00
2018-12-17T14:35:37.107Z,588.00
2018-12-17T14:36:36.430Z,580.00
2018-12-17T14:37:36.416Z,548.00
2018-12-17T14:38:36.425Z,532.00
2018-12-17T14:39:36.431Z,528.00
2018-12-17T14:40:36.417Z,500.00
2018-12-17T14:41:36.380Z,452.00
2018-12-17T14:42:36.370Z,412.00
2018-12-17T14:43:36.358Z,376.00
2018-12-17T14:44:36.347Z,344.00
2018-12-17T14:45:36.372Z,300.00
2018-12-17T14:46:36.323Z,252.00
2018-12-17T14:47:36.319Z,224.00
2018-12-17T14:48:36.308Z,216.00
2018-12-17T14:49:36.299Z,208.00
2018-12-17T14:50:36.304Z,188.00
2018-12-17T14:51:36.265Z,172.00
2018-12-17T14:52:36.324Z,160.00
2018-12-17T14:53:36.753Z,148.00
2018-12-17T14:54:36.250Z,132.00
2018-12-17T14:55:36.257Z,124.00
2018-12-17T14:56:36.221Z,116.00
2018-12-17T14:57:36.230Z,108.00
2018-12-17T14:58:36.211Z,96.00
2018-12-17T14:59:36.191Z,88.00
2018-12-17T15:00:36.245Z,80.00
2018-12-17T15:01:36.222Z,72.00
2018-12-17T15:02:36.203Z,64.00
2018-12-17T15:03:36.159Z,60.00
2018-12-17T15:04:36.163Z,48.00
2018-12-17T15:05:36.191Z,44.00
2018-12-17T15:06:36.148Z,40.00
2018-12-17T15:07:36.121Z,36.00
2018-12-17T15:08:36.103Z,28.00
2018-12-17T15:09:36.099Z,28.00
2018-12-17T15:10:36.111Z,24.00
2018-12-17T15:11:36.080Z,20.00
2018-12-17T15:12:36.067Z,20.00
2018-12-17T15:13:36.626Z,16.00
2018-12-17T15:14:36.041Z,16.00
2018-12-17T15:15:36.061Z,16.00
2018-12-17T15:16:36.013Z,12.00
2018-12-17T15:17:36.004Z,12.00
2018-12-17T15:18:35.990Z,4.00
2018-12-17T15:19:35.992Z,4.00
2018-12-17T15:20:35.992Z,8.00
2018-12-17T15:21:35.955Z,4.00
2018-12-17T15:22:35.958Z,4.00
2018-12-17T15:23:36.040Z,4.00
2018-12-17T15:24:40.370Z,4.00
2018-12-17T15:25:35.948Z,4.00
2018-12-17T15:26:35.931Z,0.00
2018-12-17T15:27:35.896Z,0.00
2018-12-17T15:28:35.899Z,4.00
2018-12-17T15:29:35.879Z,4.00
2018-12-17T15:30:35.882Z,0.00
2018-12-17T15:31:42.864Z,0.00
2018-12-17T15:32:36.851Z,0.00
2018-12-17T15:33:35.821Z,0.00
2018-12-17T15:34:35.823Z,0.00
2018-12-17T15:35:35.805Z,0.00
2018-12-17T15:36:35.809Z,0.00
2018-12-17T15:37:36.697Z,0.00
2018-12-17T15:38:35.771Z,0.00
2018-12-17T15:39:35.764Z,0.00
2018-12-17T15:40:35.752Z,0.00
2018-12-17T15:41:35.754Z,0.00
2018-12-17T15:42:40.710Z,0.00
2018-12-17T15:43:36.750Z,0.00
2018-12-17T15:44:35.710Z,0.00
2018-12-17T15:45:35.728Z,0.00
2018-12-17T15:46:35.708Z,0.00
2018-12-17T15:47:35.684Z,0.00
2018-12-17T15:48:35.676Z,0.00
2018-12-17T15:49:35.658Z,0.00
2018-12-17T15:50:35.986Z,0.00
2018-12-17T15:51:36.435Z,0.00
2018-12-17T15:52:35.664Z,0.00
2018-12-17T15:53:35.626Z,0.00
2018-12-17T15:54:35.605Z,0.00
2018-12-17T15:55:35.610Z,0.00
2018-12-17T15:56:35.620Z,0.00
2018-12-17T15:57:35.580Z,0.00
2018-12-17T15:58:35.562Z,0.00
2018-12-17T15:59:35.551Z,0.00
2018-12-17T16:00:35.554Z,0.00
2018-12-17T16:01:35.565Z,0.00
2018-12-17T16:02:35.540Z,0.00
2018-12-17T16:03:35.515Z,0.00
2018-12-17T16:04:35.499Z,0.00
2018-12-17T16:05:35.496Z,0.00
2018-12-17T16:06:35.519Z,0.00
2018-12-17T16:07:35.477Z,0.00
2018-12-17T16:08:35.461Z,0.00
2018-12-17T16:09:35.449Z,0.00
2018-12-17T16:10:35.447Z,0.00
2018-12-17T16:11:35.443Z,0.00
2018-12-17T16:12:35.420Z,0.00
2018-12-17T16:13:35.421Z,0.00
2018-12-17T16:14:35.390Z,0.00
2018-12-17T16:15:35.432Z,0.00
2018-12-17T16:16:35.409Z,0.00
2018-12-17T16:17:35.365Z,0.00
2018-12-17T16:18:35.369Z,0.00
2018-12-17T16:19:35.993Z,0.00
2018-12-17T16:20:35.368Z,0.00
2018-12-17T16:21:35.352Z,0.00
2018-12-17T16:22:35.315Z,0.00
2018-12-17T16:23:35.298Z,0.00
2018-12-17T16:24:35.293Z,0.00
2018-12-17T16:25:35.280Z,0.00
2018-12-17T16:26:35.281Z,0.00
2018-12-17T16:27:35.271Z,0.00
2018-12-17T16:28:35.251Z,0.00
2018-12-17T16:29:35.264Z,0.00
2018-12-17T16:30:35.243Z,0.00
2018-12-17T16:31:35.233Z,0.00
2018-12-17T16:32:35.225Z,0.00
2018-12-17T16:33:35.283Z,0.00
2018-12-17T16:34:35.323Z,0.00
2018-12-17T16:35:35.182Z,0.00
2018-12-17T16:36:35.225Z,0.00
2018-12-17T16:37:35.173Z,0.00
2018-12-17T16:38:35.167Z,0.00
2018-12-17T16:39:35.129Z,0.00
2018-12-17T16:40:35.125Z,0.00
2018-12-17T16:41:35.119Z,0.00
2018-12-17T16:42:35.139Z,0.00
2018-12-17T16:43:35.106Z,0.00
2018-12-17T16:44:35.111Z,0.00
2018-12-17T16:45:35.108Z,0.00
2018-12-17T16:46:35.087Z,0.00
2018-12-17T16:47:35.075Z,0.00
2018-12-17T16:48:35.114Z,0.00
2018-12-17T16:49:35.056Z,0.00
2018-12-17T16:50:35.014Z,0.00
2018-12-17T16:51:34.998Z,0.00
2018-12-17T16:52:35.023Z,0.00
2018-12-17T16:53:34.988Z,0.00
2018-12-17T16:54:34.970Z,0.00
2018-12-17T16:55:34.962Z,0.00
2018-12-17T16:56:35.421Z,0.00
2018-12-17T16:57:34.964Z,0.00
2018-12-17T16:58:34.943Z,0.00
2018-12-17T16:59:34.928Z,0.00
2018-12-17T17:00:34.980Z,0.00
2018-12-17T17:01:34.907Z,0.00
2018-12-17T17:02:34.910Z,0.00
2018-12-17T17:03:34.880Z,0.00
2018-12-17T17:04:34.870Z,0.00
2018-12-17T17:05:34.872Z,0.00
2018-12-17T17:06:34.839Z,0.00
2018-12-17T17:07:34.848Z,0.00
2018-12-17T17:08:34.824Z,0.00
2018-12-17T17:09:34.825Z,0.00
2018-12-17T17:10:34.821Z,0.00
2018-12-17T17:11:34.814Z,0.00
2018-12-17T17:12:34.806Z,0.00
2018-12-17T17:13:34.788Z,0.00
2018-12-17T17:14:34.764Z,0.00
2018-12-17T17:15:34.758Z,0.00
2018-12-17T17:16:34.745Z,0.00
2018-12-17T17:17:34.743Z,0.00
2018-12-17T17:18:34.721Z,0.00
2018-12-17T17:19:34.707Z,0.00
2018-12-17T17:20:34.704Z,0.00
2018-12-17T17:21:34.681Z,0.00
2018-12-17T17:22:34.693Z,0.00
2018-12-17T17:23:34.661Z,0.00
2018-12-17T17:24:34.669Z,0.00
2018-12-17T17:25:34.641Z,0.00
2018-12-17T17:26:34.637Z,0.00
2018-12-17T17:27:34.642Z,0.00
2018-12-17T17:28:34.606Z,0.00
2018-12-17T17:29:34.593Z,0.00
2018-12-17T17:30:34.595Z,0.00
2018-12-17T17:31:34.581Z,0.00
2018-12-17T17:32:34.577Z,0.00
2018-12-17T17:33:34.574Z,0.00
2018-12-17T17:34:34.553Z,0.00
2018-12-17T17:35:34.557Z,0.00
2018-12-17T17:36:34.579Z,0.00
2018-12-17T17:37:34.517Z,0.00
2018-12-17T17:38:34.533Z,0.00
2018-12-17T17:39:34.536Z,0.00
2018-12-17T17:40:34.483Z,0.00
2018-12-17T17:41:35.221Z,0.00
2018-12-17T17:42:34.470Z,0.00
2018-12-17T17:43:34.465Z,0.00
2018-12-17T17:44:34.439Z,0.00
2018-12-17T17:45:34.435Z,0.00
2018-12-17T17:46:34.421Z,0.00
2018-12-17T17:47:34.408Z,0.00
2018-12-17T17:48:34.415Z,0.00
2018-12-17T17:49:34.409Z,0.00
2018-12-17T17:50:34.389Z,0.00
2018-12-17T17:51:34.399Z,0.00
2018-12-17T17:52:34.358Z,0.00
2018-12-17T17:53:34.391Z,0.00
2018-12-17T17:54:34.351Z,0.00
2018-12-17T17:55:34.329Z,0.00
2018-12-17T17:56:34.323Z,0.00
2018-12-17T17:57:34.317Z,0.00
2018-12-17T17:58:34.343Z,0.00
2018-12-17T17:59:34.286Z,0.00
2018-12-17T18:00:34.274Z,0.00
2018-12-17T18:01:34.261Z,0.00
2018-12-17T18:02:34.252Z,0.00
2018-12-17T18:03:34.263Z,0.00
2018-12-17T18:04:34.246Z,0.00
2018-12-17T18:05:34.229Z,0.00
2018-12-17T18:06:34.231Z,0.00
2018-12-17T18:07:34.202Z,0.00
2018-12-17T18:08:34.234Z,0.00
2018-12-17T18:09:34.196Z,0.00
2018-12-17T18:10:34.361Z,0.00
2018-12-17T18:11:34.166Z,0.00
2018-12-17T18:12:34.142Z,0.00
2018-12-17T18:13:34.174Z,0.00
2018-12-17T18:14:34.148Z,0.00
2018-12-17T18:15:34.117Z,0.00
2018-12-17T18:16:34.116Z,0.00
2018-12-17T18:17:34.102Z,0.00
2018-12-17T18:18:34.119Z,0.00
2018-12-17T18:19:34.143Z,0.00
2018-12-17T18:20:34.071Z,0.00
2018-12-17T18:21:34.106Z,0.00
2018-12-17T18:22:34.049Z,0.00
2018-12-17T18:23:34.029Z,0.00
2018-12-17T18:24:34.033Z,0.00
2018-12-17T18:25:34.011Z,0.00
2018-12-17T18:26:34.014Z,0.00
2018-12-17T18:27:33.986Z,0.00
2018-12-17T18:28:33.974Z,0.00
2018-12-17T18:29:34.016Z,0.00
2018-12-17T18:30:33.958Z,0.00
2018-12-17T18:31:33.948Z,0.00
2018-12-17T18:32:33.930Z,0.00
2018-12-17T18:33:33.926Z,0.00
2018-12-17T18:34:33.931Z,0.00
2018-12-17T18:35:33.904Z,0.00
2018-12-17T18:36:33.892Z,0.00
2018-12-17T18:37:33.890Z,0.00
2018-12-17T18:38:33.870Z,0.00
2018-12-17T18:39:33.948Z,0.00
2018-12-17T18:40:33.854Z,0.00
2018-12-17T18:41:33.833Z,0.00
2018-12-17T18:42:33.830Z,0.00
2018-12-17T18:43:33.853Z,0.00
2018-12-17T18:44:33.926Z,0.00
2018-12-17T18:45:33.782Z,0.00
2018-12-17T18:46:33.878Z,0.00
2018-12-17T18:47:33.778Z,0.00
2018-12-17T18:48:33.760Z,0.00
2018-12-17T18:49:33.771Z,0.00
2018-12-17T18:50:33.795Z,0.00
2018-12-17T18:51:33.730Z,0.00
2018-12-17T18:52:33.791Z,0.00
2018-12-17T18:53:33.709Z,0.00
2018-12-17T18:54:33.707Z,0.00
2018-12-17T18:55:33.693Z,0.00
2018-12-17T18:56:33.700Z,0.00
2018-12-17T18:57:33.667Z,0.00
2018-12-17T18:58:35.131Z,0.00
2018-12-17T18:59:33.661Z,0.00
2018-12-17T19:00:33.637Z,0.00
2018-12-17T19:01:33.628Z,0.00
2018-12-17T19:02:33.616Z,0.00
2018-12-17T19:03:33.601Z,0.00
2018-12-17T19:04:33.605Z,0.00
2018-12-17T19:05:33.653Z,0.00
2018-12-17T19:06:33.565Z,0.00
2018-12-17T19:07:33.589Z,0.00
2018-12-17T19:08:33.561Z,0.00
2018-12-17T19:09:33.585Z,0.00
2018-12-17T19:10:33.529Z,0.00
2018-12-17T19:11:33.547Z,0.00
2018-12-17T19:12:33.505Z,0.00
2018-12-17T19:13:33.494Z,0.00
2018-12-17T19:14:33.519Z,0.00
2018-12-17T19:15:33.487Z,0.00
2018-12-17T19:16:33.471Z,0.00
2018-12-17T19:17:33.451Z,0.00
2018-12-17T19:18:33.455Z,0.00
2018-12-17T19:19:33.453Z,0.00
2018-12-17T19:20:33.444Z,0.00
2018-12-17T19:21:33.416Z,0.00
2018-12-17T19:22:33.407Z,0.00
2018-12-17T19:23:33.439Z,0.00
2018-12-17T19:24:33.528Z,0.00
2018-12-17T19:25:33.381Z,0.00
2018-12-17T19:26:33.360Z,0.00
2018-12-17T19:27:33.347Z,0.00
2018-12-17T19:28:33.340Z,0.00
2018-12-17T19:29:33.341Z,0.00
2018-12-17T19:30:33.317Z,0.00
2018-12-17T19:31:34.613Z,0.00
2018-12-17T19:32:39.980Z,0.00
2018-12-17T19:33:34.278Z,0.00
2018-12-17T19:34:33.286Z,0.00
2018-12-17T19:35:33.277Z,0.00
2018-12-17T19:36:33.267Z,0.00
2018-12-17T19:37:33.248Z,0.00
2018-12-17T19:38:33.234Z,0.00
2018-12-17T19:39:33.251Z,0.00
2018-12-17T19:40:33.221Z,0.00
2018-12-17T19:41:33.222Z,0.00
2018-12-17T19:42:33.194Z,0.00
2018-12-17T19:43:33.184Z,0.00
2018-12-17T19:44:33.193Z,0.00
2018-12-17T19:45:33.157Z,0.00
2018-12-17T19:46:33.153Z,0.00
2018-12-17T19:47:34.111Z,0.00
2018-12-17T19:48:33.144Z,0.00
2018-12-17T19:49:33.121Z,0.00
2018-12-17T19:50:33.120Z,0.00
2018-12-17T19:51:33.178Z,0.00
2018-12-17T19:52:33.098Z,0.00
2018-12-17T19:53:33.088Z,0.00
2018-12-17T19:54:33.074Z,0.00
2018-12-17T19:55:33.120Z,0.00
2018-12-17T19:56:33.037Z,0.00
2018-12-17T19:57:33.039Z,0.00
2018-12-17T19:58:33.024Z,0.00
2018-12-17T19:59:33.019Z,0.00
2018-12-17T20:00:33.028Z,0.00
2018-12-17T20:01:33.002Z,0.00
2018-12-17T20:02:32.973Z,0.00
2018-12-17T20:03:33.108Z,0.00
2018-12-17T20:04:32.959Z,0.00
2018-12-17T20:05:32.992Z,0.00
2018-12-17T20:06:32.936Z,0.00
2018-12-17T20:07:32.933Z,0.00
2018-12-17T20:08:32.980Z,0.00
2018-12-17T20:09:32.904Z,0.00
2018-12-17T20:10:32.912Z,0.00
2018-12-17T20:11:32.908Z,0.00
2018-12-17T20:12:32.902Z,0.00
2018-12-17T20:13:32.866Z,0.00
2018-12-17T20:14:33.640Z,0.00
2018-12-17T20:15:32.885Z,0.00
2018-12-17T20:16:32.844Z,0.00
2018-12-17T20:17:32.834Z,0.00
2018-12-17T20:18:32.800Z,0.00
2018-12-17T20:19:32.794Z,0.00
2018-12-17T20:20:32.798Z,0.00
2018-12-17T20:21:32.783Z,0.00
2018-12-17T20:22:32.758Z,0.00
2018-12-17T20:23:32.753Z,0.00
2018-12-17T20:24:32.750Z,0.00
2018-12-17T20:25:32.730Z,0.00
2018-12-17T20:26:32.734Z,0.00
2018-12-17T20:27:32.714Z,0.00
2018-12-17T20:28:32.704Z,0.00
2018-12-17T20:29:32.683Z,0.00
2018-12-17T20:30:32.679Z,0.00
2018-12-17T20:31:32.693Z,0.00
2018-12-17T20:32:32.658Z,0.00
2018-12-17T20:33:32.665Z,0.00
2018-12-17T20:34:32.632Z,0.00
2018-12-17T20:35:34.126Z,0.00
2018-12-17T20:36:32.662Z,0.00
2018-12-17T20:37:32.618Z,0.00
2018-12-17T20:38:32.611Z,0.00
2018-12-17T20:39:32.597Z,0.00
2018-12-17T20:40:32.588Z,0.00
2018-12-17T20:41:32.601Z,0.00
2018-12-17T20:42:32.564Z,0.00
2018-12-17T20:43:32.547Z,0.00
2018-12-17T20:44:32.551Z,0.00
2018-12-17T20:45:32.620Z,0.00
2018-12-17T20:46:32.525Z,0.00
2018-12-17T20:47:32.515Z,0.00
2018-12-17T20:48:32.532Z,0.00
2018-12-17T20:49:32.479Z,0.00
2018-12-17T20:50:32.491Z,0.00
2018-12-17T20:51:32.465Z,0.00
2018-12-17T20:52:32.445Z,0.00
2018-12-17T20:53:32.432Z,0.00
2018-12-17T20:54:32.427Z,0.00
2018-12-17T20:55:32.413Z,0.00
2018-12-17T20:56:33.180Z,0.00
2018-12-17T20:57:32.394Z,0.00
2018-12-17T20:58:32.420Z,0.00
2018-12-17T20:59:32.369Z,0.00
2018-12-17T21:00:32.362Z,0.00
2018-12-17T21:01:32.368Z,0.00
2018-12-17T21:02:32.353Z,0.00
2018-12-17T21:03:32.355Z,0.00
2018-12-17T21:04:32.311Z,0.00
2018-12-17T21:05:32.305Z,0.00
2018-12-17T21:06:32.313Z,0.00
2018-12-17T21:07:32.309Z,0.00
2018-12-17T21:08:32.301Z,0.00
2018-12-17T21:09:32.322Z,0.00
2018-12-17T21:10:32.275Z,0.00
2018-12-17T21:11:32.316Z,0.00
2018-12-17T21:12:32.253Z,0.00
2018-12-17T21:13:32.225Z,0.00
2018-12-17T21:14:32.241Z,0.00
2018-12-17T21:15:32.242Z,0.00
2018-12-17T21:16:32.225Z,0.00
2018-12-17T21:17:32.195Z,0.00
2018-12-17T21:18:32.183Z,0.00
2018-12-17T21:19:32.198Z,0.00
2018-12-17T21:20:32.164Z,0.00
2018-12-17T21:21:32.178Z,0.00
2018-12-17T21:22:32.132Z,0.00
2018-12-17T21:23:32.125Z,0.00
2018-12-17T21:24:32.112Z,0.00
2018-12-17T21:25:32.108Z,0.00
2018-12-17T21:26:32.094Z,0.00
2018-12-17T21:27:32.108Z,0.00
2018-12-17T21:28:32.070Z,0.00
2018-12-17T21:29:32.065Z,0.00
2018-12-17T21:30:32.074Z,0.00
2018-12-17T21:31:32.053Z,0.00
2018-12-17T21:32:32.047Z,0.00
2018-12-17T21:33:32.014Z,0.00
2018-12-17T21:34:32.005Z,0.00
2018-12-17T21:35:32.001Z,0.00
2018-12-17T21:36:31.981Z,0.00
2018-12-17T21:37:31.990Z,0.00
